createdAt,value
2022-09-21T00:00:49.522Z,101027.41
2022-09-21T00:03:19.398Z,101024.56
2022-09-21T00:05:47.155Z,101028.59
2022-09-21T00:08:15.741Z,101025.72
2022-09-21T00:10:50.543Z,101025.06
2022-09-21T00:13:19.647Z,101022.53
2022-09-21T00:15:47.324Z,101030.59
2022-09-21T00:18:14.922Z,101027.56
2022-09-21T00:20:43.502Z,101027.91
2022-09-21T00:23:11.129Z,101031.56
2022-09-21T00:25:42.594Z,101026.72
2022-09-21T00:28:14.523Z,101029.38
2022-09-21T00:30:42.098Z,101027.19
2022-09-21T00:33:09.746Z,101031.03
2022-09-21T00:35:37.392Z,101031.88
2022-09-21T00:38:04.934Z,101036.69
2022-09-21T00:40:32.957Z,101033.34
2022-09-21T00:43:16.748Z,101038.06
2022-09-21T00:45:47.901Z,101037.53
2022-09-21T00:48:16.262Z,101043.38
2022-09-21T00:50:49.329Z,101040.66
2022-09-21T00:53:16.933Z,101036.94
2022-09-21T00:55:48.202Z,101031.59
2022-09-21T00:58:24.269Z,101034.59
2022-09-21T01:00:52.302Z,101038.63
2022-09-21T01:03:20.304Z,101039.25
2022-09-21T01:05:48.010Z,101035.00
2022-09-21T01:08:17.336Z,101041.19
2022-09-21T01:11:01.385Z,101048.50
2022-09-21T01:13:43.187Z,101051.88
2022-09-21T01:16:16.512Z,101044.69
2022-09-21T01:18:52.917Z,101049.03
2022-09-21T01:21:23.551Z,101049.72
2022-09-21T01:24:12.368Z,101052.72
2022-09-21T01:27:02.251Z,101046.47
2022-09-21T01:29:38.118Z,101041.91
2022-09-21T01:32:10.219Z,101050.41
2022-09-21T01:34:43.995Z,101053.38
2022-09-21T01:37:16.820Z,101052.16
2022-09-21T01:39:48.686Z,101052.91
2022-09-21T01:42:18.761Z,101051.75
2022-09-21T01:44:48.262Z,101052.91
2022-09-21T01:47:18.027Z,101052.41
2022-09-21T01:49:48.021Z,101055.84
2022-09-21T01:52:22.229Z,101057.50
2022-09-21T01:54:53.587Z,101053.91
2022-09-21T01:57:32.721Z,101051.19
2022-09-21T02:00:02.675Z,101052.34
2022-09-21T02:02:37.973Z,101056.16
2022-09-21T02:05:07.426Z,101047.16
2022-09-21T02:07:35.596Z,101047.31
2022-09-21T02:10:03.476Z,101036.22
2022-09-21T02:12:33.104Z,101046.47
2022-09-21T02:15:03.917Z,101044.78
2022-09-21T02:17:41.026Z,101043.56
2022-09-21T02:20:18.458Z,101041.91
2022-09-21T02:22:58.454Z,101036.03
2022-09-21T02:25:34.844Z,101036.31
2022-09-21T02:28:09.440Z,101042.13
2022-09-21T02:30:41.345Z,101035.56
2022-09-21T02:33:14.035Z,101034.22
2022-09-21T02:35:48.751Z,101043.66
2022-09-21T02:38:27.002Z,101041.16
2022-09-21T02:41:03.762Z,101047.09
2022-09-21T02:43:35.519Z,101044.59
2022-09-21T02:46:09.516Z,101045.56
2022-09-21T02:48:41.842Z,101050.22
2022-09-21T02:51:14.705Z,101058.41
2022-09-21T02:53:44.266Z,101048.63
2022-09-21T02:56:14.159Z,101050.81
2022-09-21T02:58:46.470Z,101052.13
2022-09-21T03:01:17.226Z,101047.56
2022-09-21T03:03:44.944Z,101046.78
2022-09-21T03:06:12.548Z,101043.19
2022-09-21T03:08:40.800Z,101040.84
2022-09-21T03:11:08.995Z,101044.88
2022-09-21T03:13:36.803Z,101043.69
2022-09-21T03:16:07.045Z,101046.63
2022-09-21T03:18:36.052Z,101050.00
2022-09-21T03:21:04.257Z,101052.13
2022-09-21T03:23:31.989Z,101047.00
2022-09-21T03:25:59.656Z,101053.78
2022-09-21T03:28:27.282Z,101059.41
2022-09-21T03:30:55.185Z,101054.78
2022-09-21T03:33:23.006Z,101054.63
2022-09-21T03:35:52.802Z,101061.53
2022-09-21T03:38:21.501Z,101066.16
2022-09-21T03:40:50.032Z,101067.72
2022-09-21T03:43:18.532Z,101065.66
2022-09-21T03:45:48.189Z,101066.50
2022-09-21T03:48:16.599Z,101058.41
2022-09-21T03:50:44.499Z,101067.81
2022-09-21T03:53:13.954Z,101059.44
2022-09-21T03:55:41.661Z,101063.59
2022-09-21T03:58:09.908Z,101070.50
2022-09-21T04:00:38.106Z,101065.88
2022-09-21T04:03:06.039Z,101071.25
2022-09-21T04:05:33.873Z,101072.78
2022-09-21T04:08:02.404Z,101074.50
2022-09-21T04:10:33.692Z,101073.75
2022-09-21T04:13:03.388Z,101077.56
2022-09-21T04:15:34.247Z,101076.84
2022-09-21T04:18:02.706Z,101087.38
2022-09-21T04:20:30.252Z,101087.38
2022-09-21T04:22:57.884Z,101081.19
2022-09-21T04:25:25.433Z,101090.78
2022-09-21T04:27:54.491Z,101078.84
2022-09-21T04:30:22.087Z,101081.19
2022-09-21T04:32:49.708Z,101073.91
2022-09-21T04:35:17.414Z,101087.53
2022-09-21T04:37:45.056Z,101082.13
2022-09-21T04:40:12.835Z,101083.97
2022-09-21T04:42:40.456Z,101083.47
2022-09-21T04:45:11.002Z,101088.97
2022-09-21T04:47:38.606Z,101092.34
2022-09-21T04:50:07.328Z,101091.41
2022-09-21T04:52:35.120Z,101091.22
2022-09-21T04:55:02.684Z,101088.72
2022-09-21T04:57:30.412Z,101089.59
2022-09-21T04:59:58.047Z,101089.75
2022-09-21T05:02:26.954Z,101089.59
2022-09-21T05:04:54.774Z,101086.22
2022-09-21T05:07:22.377Z,101103.16
2022-09-21T05:10:04.449Z,101103.06
2022-09-21T05:12:32.868Z,101102.34
2022-09-21T05:15:00.691Z,101101.22
2022-09-21T05:17:30.256Z,101102.38
2022-09-21T05:19:58.018Z,101106.16
2022-09-21T05:22:25.628Z,101113.59
2022-09-21T05:24:53.195Z,101115.53
2022-09-21T05:27:20.828Z,101119.72
2022-09-21T05:29:48.996Z,101123.63
2022-09-21T05:32:24.668Z,101121.66
2022-09-21T05:35:03.541Z,101123.44
2022-09-21T05:37:46.511Z,101122.47
2022-09-21T05:40:15.083Z,101123.69
2022-09-21T05:42:43.210Z,101125.25
2022-09-21T05:45:15.168Z,101130.28
2022-09-21T05:47:54.058Z,101135.38
2022-09-21T05:50:34.235Z,101126.22
2022-09-21T05:53:13.591Z,101138.50
2022-09-21T05:55:49.435Z,101137.19
2022-09-21T05:58:27.230Z,101145.22
2022-09-21T06:01:06.068Z,101150.28
2022-09-21T06:03:36.086Z,101145.72
2022-09-21T06:06:05.380Z,101138.84
2022-09-21T06:08:33.026Z,101148.66
2022-09-21T06:11:00.713Z,101153.81
2022-09-21T06:13:28.408Z,101156.00
2022-09-21T06:15:56.029Z,101155.78
2022-09-21T06:18:23.644Z,101160.44
2022-09-21T06:20:51.196Z,101153.06
2022-09-21T06:23:20.292Z,101154.59
2022-09-21T06:25:56.056Z,101158.94
2022-09-21T06:28:26.524Z,101155.41
2022-09-21T06:30:55.634Z,101146.22
2022-09-21T06:33:23.696Z,101143.09
2022-09-21T06:35:55.638Z,101140.38
2022-09-21T06:38:25.726Z,101132.50
2022-09-21T06:40:54.097Z,101138.91
2022-09-21T06:43:22.267Z,101136.44
2022-09-21T06:45:57.475Z,101141.00
2022-09-21T06:48:26.797Z,101120.59
2022-09-21T06:50:58.304Z,101123.69
2022-09-21T06:53:27.830Z,101121.25
2022-09-21T06:55:55.584Z,101116.72
2022-09-21T06:58:23.154Z,101122.53
2022-09-21T07:00:50.898Z,101122.97
2022-09-21T07:03:18.680Z,101125.38
2022-09-21T07:05:46.393Z,101121.81
2022-09-21T07:11:03.752Z,101129.34
2022-09-21T07:13:31.606Z,101126.00
2022-09-21T07:15:59.444Z,101129.22
2022-09-21T07:18:28.102Z,101122.66
2022-09-21T07:20:55.721Z,101122.50
2022-09-21T07:23:23.350Z,101136.28
2022-09-21T07:25:52.475Z,101126.94
2022-09-21T07:28:21.724Z,101119.34
2022-09-21T07:30:49.837Z,101120.44
2022-09-21T07:33:17.425Z,101121.22
2022-09-21T07:35:52.016Z,101103.75
2022-09-21T07:38:20.034Z,101120.00
2022-09-21T07:40:47.711Z,101117.44
2022-09-21T07:43:15.964Z,101116.41
2022-09-21T07:45:47.484Z,101111.03
2022-09-21T07:48:15.099Z,101109.09
2022-09-21T07:50:42.705Z,101108.44
2022-09-21T07:53:10.215Z,101098.50
2022-09-21T07:55:37.770Z,101103.94
2022-09-21T07:58:23.216Z,101107.09
2022-09-21T08:00:52.160Z,101095.59
2022-09-21T08:03:19.743Z,101107.53
2022-09-21T08:05:47.742Z,101107.19
2022-09-21T08:08:16.831Z,101106.59
2022-09-21T08:10:47.476Z,101113.00
2022-09-21T08:13:15.158Z,101104.78
2022-09-21T08:15:49.882Z,101105.47
2022-09-21T08:18:19.684Z,101101.72
2022-09-21T08:20:55.346Z,101106.38
2022-09-21T08:23:22.994Z,101106.31
2022-09-21T08:25:51.068Z,101103.63
2022-09-21T08:28:19.755Z,101105.94
2022-09-21T08:30:47.289Z,101097.03
2022-09-21T08:33:14.787Z,101091.13
2022-09-21T08:35:43.796Z,101093.03
2022-09-21T08:38:11.336Z,101106.81
2022-09-21T08:40:42.046Z,101108.47
2022-09-21T08:43:14.065Z,101114.50
2022-09-21T08:45:44.944Z,101110.19
2022-09-21T08:48:21.826Z,101108.88
2022-09-21T08:50:55.539Z,101113.44
2022-09-21T08:53:31.650Z,101118.66
2022-09-21T08:55:59.242Z,101106.81
2022-09-21T08:58:28.983Z,101101.25
2022-09-21T09:01:07.881Z,101104.97
2022-09-21T09:04:01.753Z,101097.41
2022-09-21T09:06:43.146Z,101095.94
2022-09-21T09:09:26.536Z,101095.69
2022-09-21T09:12:10.707Z,101100.41
2022-09-21T09:14:59.891Z,101097.63
2022-09-21T09:17:40.240Z,101104.16
2022-09-21T09:20:14.254Z,101090.19
2022-09-21T09:22:47.508Z,101101.59
2022-09-21T09:25:20.567Z,101095.06
2022-09-21T09:27:52.073Z,101095.28
2022-09-21T09:30:21.466Z,101097.56
2022-09-21T09:32:57.061Z,101093.78
2022-09-21T09:35:30.437Z,101096.88
2022-09-21T09:38:10.102Z,101096.59
2022-09-21T09:40:55.972Z,101096.06
2022-09-21T09:43:38.287Z,101093.59
2022-09-21T09:46:14.118Z,101103.44
2022-09-21T09:48:56.451Z,101099.72
2022-09-21T09:51:26.776Z,101092.81
2022-09-21T09:54:06.858Z,101098.84
2022-09-21T09:56:37.194Z,101092.09
2022-09-21T09:59:11.301Z,101084.59
2022-09-21T10:01:42.630Z,101087.19
2022-09-21T10:04:12.199Z,101087.19
2022-09-21T10:06:45.356Z,101087.09
2022-09-21T10:09:27.389Z,101084.06
2022-09-21T10:11:59.412Z,101080.53
2022-09-21T10:14:30.583Z,101071.25
2022-09-21T10:17:08.317Z,101086.88
2022-09-21T10:19:37.762Z,101073.84
2022-09-21T10:22:06.528Z,101070.97
2022-09-21T10:24:38.872Z,101070.66
2022-09-21T10:27:13.540Z,101070.78
2022-09-21T10:29:43.709Z,101066.72
2022-09-21T10:32:26.983Z,101054.78
2022-09-21T10:35:21.632Z,101059.03
2022-09-21T10:37:53.551Z,101064.88
2022-09-21T10:40:30.789Z,101054.13
2022-09-21T10:43:01.268Z,101047.28
2022-09-21T10:45:30.959Z,101049.09
2022-09-21T10:48:00.617Z,101055.19
2022-09-21T10:50:31.323Z,101053.34
2022-09-21T10:53:02.604Z,101057.69
2022-09-21T10:55:38.481Z,101045.19
2022-09-21T10:58:11.113Z,101043.78
2022-09-21T11:00:45.410Z,101043.34
2022-09-21T11:03:42.912Z,101041.44
2022-09-21T11:06:15.455Z,101044.19
2022-09-21T11:08:50.138Z,101042.25
2022-09-21T11:11:35.544Z,101040.06
2022-09-21T11:14:12.082Z,101035.44
2022-09-21T11:16:44.865Z,101043.34
2022-09-21T11:19:24.070Z,101043.09
2022-09-21T11:21:58.779Z,101036.00
2022-09-21T11:24:33.966Z,101036.78
2022-09-21T11:27:10.121Z,101030.09
2022-09-21T11:29:48.972Z,101025.00
2022-09-21T11:32:27.563Z,101022.09
2022-09-21T11:35:17.030Z,101027.75
2022-09-21T11:37:55.717Z,101023.31
2022-09-21T11:40:35.751Z,101013.59
2022-09-21T11:43:20.357Z,101016.69
2022-09-21T11:46:01.391Z,101013.16
2022-09-21T11:48:45.538Z,101005.81
2022-09-21T11:51:38.302Z,101008.94
2022-09-21T11:54:37.971Z,100999.97
2022-09-21T11:57:16.936Z,100999.16
2022-09-21T12:00:00.714Z,101004.75
2022-09-21T12:05:32.969Z,100994.09
2022-09-21T12:08:19.904Z,100990.41
2022-09-21T12:10:57.191Z,100991.34
2022-09-21T12:13:34.597Z,100994.56
2022-09-21T12:16:12.562Z,100977.34
2022-09-21T12:18:48.226Z,100979.34
2022-09-21T12:21:22.292Z,100979.66
2022-09-21T12:23:53.896Z,100973.81
2022-09-21T12:26:28.061Z,100974.06
2022-09-21T12:29:01.440Z,100964.06
2022-09-21T12:31:36.770Z,100970.38
2022-09-21T12:34:10.685Z,100960.94
2022-09-21T12:36:42.478Z,100961.84
2022-09-21T12:39:16.961Z,100961.38
2022-09-21T12:41:53.696Z,100959.53
2022-09-21T12:44:27.741Z,100949.44
2022-09-21T12:47:09.163Z,100948.69
2022-09-21T12:49:42.618Z,100947.16
2022-09-21T12:52:14.835Z,100947.22
2022-09-21T12:54:48.381Z,100937.50
2022-09-21T12:57:45.463Z,100941.25
2022-09-21T13:00:16.889Z,100937.53
2022-09-21T13:02:50.786Z,100938.25
2022-09-21T13:05:32.680Z,100922.59
2022-09-21T13:08:13.252Z,100928.47
2022-09-21T13:10:44.528Z,100919.25
2022-09-21T13:13:24.275Z,100919.56
2022-09-21T13:15:53.546Z,100909.56
2022-09-21T13:18:29.728Z,100915.09
2022-09-21T13:21:01.307Z,100920.41
2022-09-21T13:23:36.629Z,100913.47
2022-09-21T13:26:07.985Z,100912.06
2022-09-21T13:29:06.243Z,100911.53
2022-09-21T13:31:43.163Z,100905.19
2022-09-21T13:34:23.841Z,100898.69
2022-09-21T13:37:30.097Z,100900.03
2022-09-21T13:40:43.321Z,100900.44
2022-09-21T13:43:22.288Z,100896.81
2022-09-21T13:45:56.457Z,100888.78
2022-09-21T13:48:29.999Z,100891.75
2022-09-21T13:51:02.308Z,100887.97
2022-09-21T13:53:40.541Z,100882.06
2022-09-21T13:56:16.683Z,100879.84
2022-09-21T13:58:47.082Z,100875.41
2022-09-21T14:01:42.486Z,100881.00
2022-09-21T14:04:20.356Z,100884.78
2022-09-21T14:06:54.154Z,100870.72
2022-09-21T14:09:27.571Z,100876.97
2022-09-21T14:11:58.815Z,100879.47
2022-09-21T14:14:31.341Z,100878.56
2022-09-21T14:17:00.648Z,100868.13
2022-09-21T14:20:09.587Z,100877.91
2022-09-21T14:22:45.355Z,100874.56
2022-09-21T14:25:52.184Z,100871.97
2022-09-21T14:28:29.600Z,100876.53
2022-09-21T14:31:02.628Z,100878.34
2022-09-21T14:33:35.975Z,100876.69
2022-09-21T14:36:10.249Z,100868.63
2022-09-21T14:38:52.258Z,100867.16
2022-09-21T14:41:24.259Z,100869.16
2022-09-21T14:43:55.461Z,100863.91
2022-09-21T14:46:40.345Z,100858.59
2022-09-21T14:49:31.705Z,100857.97
2022-09-21T14:52:22.438Z,100855.72
2022-09-21T14:55:09.175Z,100852.06
2022-09-21T14:58:00.620Z,100852.47
2022-09-21T15:00:39.582Z,100842.34
2022-09-21T15:03:31.927Z,100844.91
2022-09-21T15:06:29.549Z,100839.75
2022-09-21T15:09:26.832Z,100834.66
2022-09-21T15:12:02.596Z,100830.34
2022-09-21T15:14:37.425Z,100829.28
2022-09-21T15:17:24.896Z,100832.41
2022-09-21T15:19:53.127Z,100830.13
2022-09-21T15:22:22.304Z,100826.34
2022-09-21T15:24:51.750Z,100821.00
2022-09-21T15:27:23.961Z,100822.63
2022-09-21T15:29:55.142Z,100829.81
2022-09-21T15:32:31.141Z,100833.47
2022-09-21T15:35:01.249Z,100829.44
2022-09-21T15:37:30.390Z,100822.09
2022-09-21T15:40:02.269Z,100820.13
2022-09-21T15:42:31.405Z,100815.19
2022-09-21T15:45:16.015Z,100815.94
2022-09-21T15:47:45.195Z,100810.50
2022-09-21T15:50:14.718Z,100807.78
2022-09-21T15:52:47.985Z,100814.13
2022-09-21T15:55:21.294Z,100808.88
2022-09-21T15:57:53.095Z,100800.09
2022-09-21T16:00:24.151Z,100796.19
2022-09-21T16:03:04.521Z,100800.34
2022-09-21T16:05:36.191Z,100800.84
2022-09-21T16:08:30.481Z,100803.22
2022-09-21T16:11:23.075Z,100805.38
2022-09-21T16:14:23.001Z,100801.03
2022-09-21T16:17:26.843Z,100809.38
2022-09-21T16:20:26.299Z,100806.81
2022-09-21T16:23:06.323Z,100809.16
2022-09-21T16:25:37.574Z,100817.59
2022-09-21T16:28:07.294Z,100818.09
2022-09-21T16:30:48.712Z,100821.88
2022-09-21T16:33:37.631Z,100821.69
2022-09-21T16:36:06.064Z,100833.28
2022-09-21T16:38:33.812Z,100830.59
2022-09-21T16:41:03.521Z,100829.16
2022-09-21T16:43:31.317Z,100830.81
2022-09-21T16:46:02.234Z,100836.44
2022-09-21T16:48:29.830Z,100828.59
2022-09-21T16:50:57.559Z,100834.25
2022-09-21T16:53:26.208Z,100832.97
2022-09-21T16:55:54.341Z,100834.25
2022-09-21T16:58:22.767Z,100838.19
2022-09-21T17:00:56.191Z,100848.59
2022-09-21T17:03:25.485Z,100848.97
2022-09-21T17:05:53.057Z,100847.75
2022-09-21T17:08:20.855Z,100846.72
2022-09-21T17:10:49.490Z,100842.97
2022-09-21T17:13:19.173Z,100843.38
2022-09-21T17:15:49.012Z,100844.19
2022-09-21T17:18:17.011Z,100846.91
2022-09-21T17:20:46.952Z,100851.06
2022-09-21T17:23:15.117Z,100845.03
2022-09-21T17:25:43.086Z,100856.41
2022-09-21T17:28:15.621Z,100844.97
2022-09-21T17:30:45.887Z,100848.91
2022-09-21T17:33:13.497Z,100850.97
2022-09-21T17:35:42.955Z,100850.47
2022-09-21T17:38:14.547Z,100854.72
2022-09-21T17:40:43.464Z,100855.91
2022-09-21T17:43:25.661Z,100844.88
2022-09-21T17:46:00.838Z,100854.41
2022-09-21T17:48:33.794Z,100858.97
2022-09-21T17:51:02.370Z,100859.22
2022-09-21T17:53:41.808Z,100866.28
2022-09-21T17:56:26.775Z,100870.34
2022-09-21T17:59:01.550Z,100869.47
2022-09-21T18:01:33.679Z,100873.06
2022-09-21T18:04:01.825Z,100881.06
2022-09-21T18:06:30.121Z,100892.22
2022-09-21T18:08:59.748Z,100892.22
2022-09-21T18:12:03.444Z,100892.16
2022-09-21T18:14:40.291Z,100899.00
2022-09-21T18:17:20.723Z,100904.88
2022-09-21T18:20:03.656Z,100904.88
2022-09-21T18:22:41.958Z,100900.13
2022-09-21T18:25:16.861Z,100913.22
2022-09-21T18:27:48.540Z,100914.50
2022-09-21T18:30:17.411Z,100910.53
2022-09-21T18:32:56.959Z,100913.22
2022-09-21T18:35:38.871Z,100915.19
2022-09-21T18:38:18.084Z,100916.44
2022-09-21T18:40:59.142Z,100920.91
2022-09-21T18:43:35.245Z,100915.22
2022-09-21T18:46:06.474Z,100920.75
2022-09-21T18:48:50.798Z,100920.25
2022-09-21T18:51:24.886Z,100923.47
2022-09-21T18:53:56.139Z,100922.53
2022-09-21T18:56:26.476Z,100917.00
2022-09-21T18:58:54.540Z,100923.16
2022-09-21T19:01:29.184Z,100922.22
2022-09-21T19:03:57.334Z,100926.06
2022-09-21T19:06:42.648Z,100927.09
2022-09-21T19:09:21.254Z,100927.28
2022-09-21T19:11:56.173Z,100928.03
2022-09-21T19:14:34.436Z,100935.03
2022-09-21T19:17:12.754Z,100932.44
2022-09-21T19:19:52.456Z,100930.50
2022-09-21T19:22:29.823Z,100931.81
2022-09-21T19:25:03.965Z,100937.94
2022-09-21T19:27:39.379Z,100932.31
2022-09-21T19:30:09.475Z,100933.97
2022-09-21T19:32:42.260Z,100942.69
2022-09-21T19:35:17.113Z,100942.31
2022-09-21T19:37:45.796Z,100937.31
2022-09-21T19:40:14.419Z,100938.13
2022-09-21T19:42:56.231Z,100940.25
2022-09-21T19:45:29.059Z,100942.09
2022-09-21T19:48:03.875Z,100941.00
2022-09-21T19:50:41.035Z,100936.75
2022-09-21T19:53:28.902Z,100938.06
2022-09-21T19:56:16.549Z,100941.47
2022-09-21T19:59:03.511Z,100936.03
2022-09-21T20:01:35.367Z,100943.59
2022-09-21T20:04:05.347Z,100945.00
2022-09-21T20:06:39.786Z,100942.13
2022-09-21T20:09:13.853Z,100941.19
2022-09-21T20:11:48.210Z,100936.56
2022-09-21T20:14:26.792Z,100943.97
2022-09-21T20:16:56.810Z,100942.31
2022-09-21T20:19:37.648Z,100945.53
2022-09-21T20:22:11.134Z,100948.84
2022-09-21T20:24:47.686Z,100948.41
2022-09-21T20:27:26.326Z,100955.91
2022-09-21T20:29:55.262Z,100956.72
2022-09-21T20:32:23.839Z,100958.31
2022-09-21T20:34:51.420Z,100958.78
2022-09-21T20:37:19.292Z,100956.91
2022-09-21T20:39:47.436Z,100951.91
2022-09-21T20:42:20.634Z,100955.00
2022-09-21T20:44:48.229Z,100954.03
2022-09-21T20:47:18.810Z,100954.41
2022-09-21T20:49:47.696Z,100958.38
2022-09-21T20:52:16.704Z,100955.47
2022-09-21T20:54:49.069Z,100960.31
2022-09-21T20:57:17.496Z,100960.66
2022-09-21T20:59:45.521Z,100961.69
2022-09-21T21:02:14.219Z,100968.53
2022-09-21T21:04:43.411Z,100963.03
2022-09-21T21:07:10.967Z,100964.47
2022-09-21T21:09:38.568Z,100965.38
2022-09-21T21:12:06.814Z,100963.09
2022-09-21T21:14:34.620Z,100966.44
2022-09-21T21:17:02.368Z,100961.31
2022-09-21T21:19:31.508Z,100962.59
2022-09-21T21:22:00.400Z,100966.75
2022-09-21T21:24:44.030Z,100968.94
2022-09-21T21:27:16.227Z,100965.00
2022-09-21T21:29:45.311Z,100962.66
2022-09-21T21:32:13.343Z,100973.41
2022-09-21T21:34:41.279Z,100966.19
2022-09-21T21:37:11.185Z,100976.91
2022-09-21T21:39:38.869Z,100977.59
2022-09-21T21:42:06.995Z,100974.75
2022-09-21T21:44:34.577Z,100973.09
2022-09-21T21:47:15.485Z,100973.25
2022-09-21T21:49:50.098Z,100976.78
2022-09-21T21:52:19.117Z,100983.72
2022-09-21T21:54:46.749Z,100980.53
2022-09-21T21:57:14.937Z,100973.16
2022-09-21T21:59:43.100Z,100974.38
2022-09-21T22:02:11.198Z,100974.19
2022-09-21T22:04:38.866Z,100977.03
2022-09-21T22:07:06.586Z,100970.03
2022-09-21T22:09:35.441Z,100965.81
2022-09-21T22:12:03.986Z,100976.38
2022-09-21T22:14:31.846Z,100978.88
2022-09-21T22:16:59.811Z,100972.19
2022-09-21T22:19:27.564Z,100981.91
2022-09-21T22:21:55.124Z,100981.75
2022-09-21T22:24:23.247Z,100979.06
2022-09-21T22:26:52.196Z,100978.41
2022-09-21T22:29:20.166Z,100972.41
2022-09-21T22:31:50.429Z,100971.72
2022-09-21T22:34:18.783Z,100974.56
2022-09-21T22:36:46.642Z,100979.44
2022-09-21T22:39:14.224Z,100973.06
2022-09-21T22:41:42.859Z,100979.91
2022-09-21T22:44:12.612Z,100982.44
2022-09-21T22:46:40.510Z,100979.94
2022-09-21T22:49:08.360Z,100984.78
2022-09-21T22:51:36.130Z,100975.56
2022-09-21T22:54:03.810Z,100981.59
2022-09-21T22:56:34.133Z,100976.25
2022-09-21T22:59:04.067Z,100975.06
2022-09-21T23:01:37.626Z,100980.25
2022-09-21T23:04:07.282Z,100977.75
2022-09-21T23:06:38.178Z,100976.19
2022-09-21T23:09:08.370Z,100971.19
2022-09-21T23:11:37.862Z,100967.50
2022-09-21T23:14:06.206Z,100974.19
2022-09-21T23:16:35.726Z,100969.03
2022-09-21T23:19:03.352Z,100971.19
2022-09-21T23:21:31.837Z,100974.03
2022-09-21T23:24:01.890Z,100978.41
2022-09-21T23:26:31.327Z,100962.97
2022-09-21T23:29:00.514Z,100968.00
2022-09-21T23:31:28.947Z,100970.84
2022-09-21T23:33:59.790Z,100975.00
2022-09-21T23:36:29.210Z,100974.84
2022-09-21T23:38:57.774Z,100969.81
2022-09-21T23:41:27.428Z,100971.47
2022-09-21T23:43:55.440Z,100977.31
2022-09-21T23:46:24.596Z,100976.78
2022-09-21T23:48:52.843Z,100972.53
2022-09-21T23:51:22.039Z,100971.03
2022-09-21T23:53:50.060Z,100972.66
2022-09-21T23:56:19.308Z,100964.66
2022-09-21T23:58:47.534Z,100973.69
